Steger, IL (60475)

5:36 PM CST on January 26, 2015 (GMT -0600)
Northern Crete IL | Change Station
CLOSE
Current Station
Personal Weather Station
Location: Crete, IL
Elevation: 730 ft
Nearby Weather Stations

Elev 730 ft 41.47 °N, 87.62 °W | Updated 48 seconds ago

Snow
Snow
25.3 °F
Feels Like 25 °F
N
0.0
Wind Variable Wind from South
Gusts 0.0 mph

Today
High -- | Low -- °F
--% Chance of Precip.
Yesterday
High -- | Low -- °F
Precip. -- in
7:07 AM 4:58 PM
Waxing Crescent, 48% visible
Pressure 29.90 in
Visibility 10.0 miles
Clouds Mostly Cloudy 1600 ft
Mostly Cloudy 2800 ft
Overcast 4100 ft
Windchill 25 °F
Dew Point 20 °F
Humidity 79%
Rainfall -999.00 in
Snow Depth Not available.
UV 0 out of 12
Pollen .10 out of 12
Air Quality Not available.
Flu Activity Not available.
METAR KIGQ 262315Z AUTO 19005KT 10SM BKN016 BKN028 OVC041 M03/M06 A2990 RMK AO2 T10291056

More Conditions Fewer Conditions

Pressure 29.90 in
Visibility 10.0 miles
Clouds Mostly Cloudy 1600 ft
Mostly Cloudy 2800 ft
Overcast 4100 ft
Windchill 25 °F
Dew Point 20 °F
Humidity 79%
Rainfall -999.00 in
Snow Depth Not available.
UV 0 out of 12
Pollen .10 out of 12
Air Quality Not available.
Flu Activity Not available.
METAR KIGQ 262315Z AUTO 19005KT 10SM BKN016 BKN028 OVC041 M03/M06 A2990 RMK AO2 T10291056

More Conditions Fewer Conditions

Nowcast | as of 3:41 PM CST on January 26, 2015

Generally light snow is expected until early evening...but a narrow band of snow over a portion of northeast and east central Illinois will produce moderate snow and result in visibility below 1 mile at times. Light accumulations up to about a half inch are possible in areas that receive moderate snowfall. Slippery conditions could develop on untreated surfaces. Motorists are advised to use extra caution.

×

10-Day Weather Forecast

Almanac

Astronomy

Jan. 26, 2015 Rise Set
Actual Time
Civil Twilight
Nautical Twilight
Astronomical Twilight
Moon
Length of Visible Light
Length of Day
Tomorrow will be .
, % of the Moon is Illuminated

Today's Extremes

State Highs State Lows

Community

WunderPhotos

Upload Photos

1,790,394 photos uploaded!

WunderBlogs® & News

Nearby

Air Quality

  Air Quality AQ Index Pollutant
Not available.

Snow Depth

Station Depth Elevation

Earthquake Activity

City Distance Mag. Time & Date
Minimum magnitude displayed is 2.5.

Coastal Water Temperatures

Place Temperature

Nearby Weather Stations